createdAt,value
2018-09-14T00:02:01.274Z,19.50
2018-09-14T00:04:35.854Z,22.50
2018-09-14T00:07:07.300Z,22.75
2018-09-14T00:09:36.770Z,23.50
2018-09-14T00:12:06.251Z,24.50
2018-09-14T00:14:36.256Z,25.00
2018-09-14T00:17:08.521Z,20.50
2018-09-14T00:19:38.508Z,26.25
2018-09-14T00:22:08.146Z,21.25
2018-09-14T00:24:38.255Z,24.50
2018-09-14T00:27:07.586Z,24.50
2018-09-14T00:29:37.309Z,27.50
2018-09-14T00:32:07.792Z,26.00
2018-09-14T00:34:37.629Z,25.50
2018-09-14T00:37:08.770Z,22.25
2018-09-14T00:39:40.260Z,23.50
2018-09-14T00:42:12.544Z,24.75
2018-09-14T00:53:14.081Z,25.75
2018-09-14T00:55:43.972Z,23.75
2018-09-14T00:58:13.820Z,25.50
2018-09-14T01:00:46.945Z,24.50
2018-09-14T01:03:18.498Z,27.00
2018-09-14T01:05:47.817Z,24.75
2018-09-14T01:08:17.215Z,25.50
2018-09-14T01:10:46.503Z,24.50
2018-09-14T01:13:16.451Z,21.25
2018-09-14T01:15:46.677Z,24.25
2018-09-14T01:18:17.144Z,24.50
2018-09-14T01:20:46.668Z,24.50
2018-09-14T01:23:16.019Z,22.75
2018-09-14T01:25:46.993Z,25.00
2018-09-14T01:28:16.673Z,27.50
2018-09-14T01:30:46.471Z,22.75
2018-09-14T01:33:15.980Z,29.25
2018-09-14T01:35:50.425Z,24.25
2018-09-14T01:38:19.866Z,28.75
2018-09-14T01:40:49.301Z,27.75
2018-09-14T01:43:19.005Z,28.25
2018-09-14T01:45:50.994Z,32.25
2018-09-14T01:48:20.471Z,29.50
2018-09-14T01:50:49.964Z,30.75
2018-09-14T01:53:19.530Z,24.75
2018-09-14T01:55:49.361Z,23.50
2018-09-14T01:58:19.300Z,28.25
2018-09-14T02:00:49.110Z,29.25
2018-09-14T02:03:18.763Z,32.50
2018-09-14T02:05:49.123Z,28.25
2018-09-14T02:08:18.602Z,26.00
2018-09-14T02:10:52.844Z,23.75
2018-09-14T02:13:23.420Z,29.50
2018-09-14T02:15:53.091Z,30.50
2018-09-14T02:18:22.577Z,27.75
2018-09-14T02:20:51.867Z,25.25
2018-09-14T02:23:21.697Z,27.75
2018-09-14T02:25:56.687Z,29.50
2018-09-14T02:28:31.315Z,27.00
2018-09-14T02:31:01.263Z,29.25
2018-09-14T02:33:30.913Z,31.00
2018-09-14T02:36:00.469Z,23.75
2018-09-14T02:38:29.998Z,30.25
2018-09-14T02:40:59.576Z,27.25
2018-09-14T02:43:29.317Z,30.75
2018-09-14T02:45:59.110Z,28.50
2018-09-14T02:48:28.822Z,24.50
2018-09-14T02:50:58.193Z,28.25
2018-09-14T02:53:27.757Z,28.00
2018-09-14T02:55:57.379Z,27.50
2018-09-14T02:58:28.631Z,25.75
2018-09-14T03:00:59.627Z,28.50
2018-09-14T03:03:29.729Z,32.00
2018-09-14T03:06:00.694Z,30.25
2018-09-14T03:08:30.625Z,28.75
2018-09-14T03:11:00.292Z,27.75
2018-09-14T03:13:30.565Z,28.50
2018-09-14T03:16:00.305Z,30.00
2018-09-14T03:18:29.885Z,30.50
2018-09-14T03:20:59.733Z,27.50
2018-09-14T03:23:30.319Z,26.25
2018-09-14T03:25:59.791Z,25.00
2018-09-14T03:28:29.467Z,28.75
2018-09-14T03:33:34.673Z,28.75
2018-09-14T03:36:07.930Z,28.50
2018-09-14T03:38:37.602Z,25.75
2018-09-14T03:41:07.005Z,29.25
2018-09-14T03:43:36.705Z,28.50
2018-09-14T03:46:06.444Z,22.25
2018-09-14T03:48:35.901Z,26.25
2018-09-14T03:51:05.747Z,28.50
2018-09-14T03:53:36.054Z,28.00
2018-09-14T03:56:05.993Z,27.75
2018-09-14T03:58:35.681Z,27.25
2018-09-14T04:01:07.736Z,25.75
2018-09-14T04:03:37.314Z,23.50
2018-09-14T04:06:07.228Z,24.75
2018-09-14T04:08:36.742Z,26.25
2018-09-14T04:11:06.439Z,21.75
2018-09-14T04:13:36.402Z,23.25
2018-09-14T04:16:06.145Z,23.00
2018-09-14T04:18:36.227Z,27.00
2018-09-14T04:21:06.641Z,25.00
2018-09-14T04:23:36.102Z,26.75
2018-09-14T04:26:05.633Z,29.00
2018-09-14T04:28:36.916Z,24.75
2018-09-14T04:31:06.590Z,26.75
2018-09-14T04:33:37.659Z,27.75
2018-09-14T04:36:07.428Z,27.00
2018-09-14T04:38:36.756Z,27.25
2018-09-14T04:41:06.391Z,29.25
2018-09-14T04:43:36.908Z,27.25
2018-09-14T04:46:06.821Z,26.75
2018-09-14T04:48:37.635Z,28.00
2018-09-14T04:51:07.626Z,32.00
2018-09-14T04:53:37.530Z,28.75
2018-09-14T04:56:09.915Z,31.50
2018-09-14T04:58:40.208Z,29.50
2018-09-14T05:01:10.296Z,33.75
2018-09-14T05:03:39.828Z,29.25
2018-09-14T05:06:10.332Z,29.25
2018-09-14T05:08:39.900Z,29.25
2018-09-14T05:11:09.425Z,39.00
2018-09-14T05:13:40.661Z,28.75
2018-09-14T05:16:15.574Z,31.75
2018-09-14T05:18:45.132Z,39.25
2018-09-14T05:21:15.142Z,38.50
2018-09-14T05:23:44.540Z,40.75
2018-09-14T05:26:15.394Z,33.50
2018-09-14T05:28:45.265Z,40.50
2018-09-14T05:31:15.845Z,41.25
2018-09-14T05:33:46.397Z,39.75
2018-09-14T05:36:18.490Z,37.50
2018-09-14T05:38:50.276Z,35.75
2018-09-14T05:41:20.911Z,38.50
2018-09-14T05:43:53.213Z,40.25
2018-09-14T05:46:23.876Z,35.00
2018-09-14T05:48:55.227Z,37.00
2018-09-14T05:51:25.879Z,44.75
2018-09-14T05:53:56.216Z,35.75
2018-09-14T05:59:03.769Z,48.00
2018-09-14T06:01:35.329Z,44.00
2018-09-14T06:04:06.744Z,52.75
2018-09-14T06:06:37.015Z,57.00
2018-09-14T06:09:11.248Z,51.75
2018-09-14T06:11:46.216Z,47.50
2018-09-14T06:14:16.686Z,47.75
2018-09-14T06:16:46.352Z,47.75
2018-09-14T06:19:16.828Z,43.00
2018-09-14T06:21:49.284Z,53.75
2018-09-14T06:24:20.103Z,52.75
2018-09-14T06:26:49.551Z,44.00
2018-09-14T06:29:26.275Z,49.50
2018-09-14T06:31:56.116Z,43.00
2018-09-14T06:34:25.830Z,45.25
2018-09-14T06:36:56.188Z,43.50
2018-09-14T06:39:26.567Z,45.50
2018-09-14T06:41:56.534Z,47.75
2018-09-14T06:44:26.128Z,47.00
2018-09-14T06:46:57.234Z,45.00
2018-09-14T06:49:28.692Z,43.00
2018-09-14T06:52:17.432Z,46.00
2018-09-14T06:54:47.350Z,48.25
2018-09-14T06:57:17.063Z,48.25
2018-09-14T06:59:47.863Z,48.50
2018-09-14T07:02:20.451Z,46.50
2018-09-14T07:04:55.966Z,47.75
2018-09-14T07:07:26.823Z,39.75
2018-09-14T07:10:12.862Z,45.25
2018-09-14T07:12:43.592Z,48.50
2018-09-14T07:15:19.597Z,48.75
2018-09-14T07:18:00.083Z,46.50
2018-09-14T07:20:30.336Z,42.25
2018-09-14T07:23:00.666Z,45.75
2018-09-14T07:25:30.459Z,46.00
2018-09-14T07:28:01.495Z,51.50
2018-09-14T07:30:41.219Z,47.75
2018-09-14T07:33:11.475Z,47.50
2018-09-14T07:35:45.340Z,49.00
2018-09-14T07:38:15.382Z,42.50
2018-09-14T07:40:51.319Z,44.50
2018-09-14T07:43:23.285Z,41.75
2018-09-14T07:45:52.873Z,44.75
2018-09-14T07:48:22.423Z,43.75
2018-09-14T07:50:53.847Z,48.75
2018-09-14T07:56:23.073Z,42.50
2018-09-14T07:59:22.689Z,42.00
2018-09-14T08:05:27.289Z,39.75
2018-09-14T08:07:57.869Z,40.50
2018-09-14T08:10:30.068Z,36.50
2018-09-14T08:13:22.548Z,40.00
2018-09-14T08:16:01.881Z,41.25
2018-09-14T08:18:39.991Z,43.25
2018-09-14T08:21:13.430Z,45.50
2018-09-14T08:23:48.770Z,38.75
2018-09-14T08:26:32.440Z,50.00
2018-09-14T08:29:09.052Z,46.75
2018-09-14T08:31:40.624Z,40.00
2018-09-14T08:34:12.068Z,41.75
2018-09-14T08:36:45.786Z,41.00
2018-09-14T08:39:16.371Z,45.25
2018-09-14T08:41:46.709Z,45.75
2018-09-14T08:44:18.418Z,42.50
2018-09-14T08:46:47.948Z,44.50
2018-09-14T08:49:19.145Z,43.50
2018-09-14T08:51:51.215Z,41.25
2018-09-14T08:54:22.096Z,46.25
2018-09-14T08:56:51.636Z,44.75
2018-09-14T08:59:27.787Z,43.00
2018-09-14T09:01:58.255Z,47.50
2018-09-14T09:04:30.560Z,47.25
2018-09-14T09:07:01.413Z,47.50
2018-09-14T09:09:31.697Z,45.50
2018-09-14T09:12:02.611Z,45.50
2018-09-14T09:14:32.680Z,48.50
2018-09-14T09:19:46.676Z,47.25
2018-09-14T09:22:17.686Z,44.50
2018-09-14T09:24:48.933Z,43.50
2018-09-14T09:27:21.212Z,44.25
2018-09-14T09:29:52.545Z,46.25
2018-09-14T09:32:27.653Z,45.25
2018-09-14T09:34:56.978Z,44.75
2018-09-14T09:40:41.325Z,49.25
2018-09-14T09:46:09.522Z,46.50
2018-09-14T09:48:39.946Z,44.50
2018-09-14T09:51:09.736Z,45.50
2018-09-14T09:53:40.274Z,38.75
2018-09-14T09:56:12.981Z,46.75
2018-09-14T09:58:43.336Z,47.00
2018-09-14T10:01:18.112Z,45.25
2018-09-14T10:03:55.136Z,46.00
2018-09-14T10:06:28.527Z,45.25
2018-09-14T10:08:59.017Z,43.00
2018-09-14T10:11:29.933Z,39.75
2018-09-14T10:14:01.653Z,37.25
2018-09-14T10:16:35.336Z,37.75
2018-09-14T10:19:05.944Z,39.00
2018-09-14T10:21:36.215Z,42.00
2018-09-14T10:24:10.906Z,38.25
2018-09-14T10:26:42.003Z,28.00
2018-09-14T10:29:12.061Z,28.50
2018-09-14T10:31:42.275Z,30.25
2018-09-14T10:34:13.964Z,34.50
2018-09-14T10:36:43.876Z,37.75
2018-09-14T10:39:17.131Z,29.50
2018-09-14T10:41:50.233Z,33.00
2018-09-14T10:44:20.043Z,32.25
2018-09-14T10:46:51.695Z,22.50
2018-09-14T10:49:24.201Z,28.00
2018-09-14T10:51:54.255Z,23.75
2018-09-14T10:54:25.278Z,26.50
2018-09-14T10:58:01.744Z,24.75
2018-09-14T11:00:41.975Z,31.50
2018-09-14T11:03:11.722Z,29.25
2018-09-14T11:05:46.036Z,28.25
2018-09-14T11:08:17.573Z,26.50
2018-09-14T11:10:47.648Z,27.75
2018-09-14T11:13:21.323Z,28.00
2018-09-14T11:15:52.918Z,27.75
2018-09-14T11:18:25.954Z,28.00
2018-09-14T11:21:01.134Z,23.50
2018-09-14T11:23:31.447Z,27.75
2018-09-14T11:26:02.343Z,29.50
2018-09-14T11:28:33.589Z,24.00
2018-09-14T11:31:09.321Z,27.25
2018-09-14T11:33:40.467Z,26.75
2018-09-14T11:36:13.106Z,28.25
2018-09-14T11:38:43.191Z,30.25
2018-09-14T11:41:14.099Z,27.75
2018-09-14T11:43:45.712Z,21.75
2018-09-14T11:48:54.906Z,23.00
2018-09-14T11:51:34.352Z,27.00
2018-09-14T11:54:09.711Z,26.50
2018-09-14T11:56:46.637Z,23.50
2018-09-14T11:59:17.423Z,20.00
2018-09-14T12:01:53.756Z,19.00
2018-09-14T12:04:24.091Z,20.25
2018-09-14T12:06:58.566Z,18.00
2018-09-14T12:09:28.347Z,16.75
2018-09-14T12:12:02.525Z,15.00
2018-09-14T12:14:37.067Z,20.25
2018-09-14T12:17:10.782Z,19.50
2018-09-14T12:19:46.741Z,15.50
2018-09-14T12:22:20.114Z,19.25
2018-09-14T12:24:53.726Z,18.75
2018-09-14T12:27:26.274Z,19.25
2018-09-14T12:32:47.584Z,19.75
2018-09-14T12:35:25.169Z,20.75
2018-09-14T12:37:54.959Z,21.00
2018-09-14T12:40:28.024Z,19.25
2018-09-14T12:43:01.000Z,21.00
2018-09-14T12:45:39.587Z,20.00
2018-09-14T12:48:12.349Z,19.75
2018-09-14T12:50:44.313Z,24.00
2018-09-14T12:53:16.098Z,21.25
2018-09-14T12:55:47.345Z,24.00
2018-09-14T12:58:19.733Z,22.00
2018-09-14T13:00:50.396Z,19.00
2018-09-14T13:03:25.066Z,20.25
2018-09-14T13:05:54.952Z,19.75
2018-09-14T13:08:24.817Z,16.75
2018-09-14T13:10:54.665Z,19.00
2018-09-14T13:13:26.248Z,20.50
2018-09-14T13:15:55.996Z,21.00
2018-09-14T13:18:26.866Z,18.75
2018-09-14T13:20:56.388Z,20.00
2018-09-14T13:23:35.902Z,15.00
2018-09-14T13:26:06.442Z,21.25
2018-09-14T13:28:40.086Z,17.50
2018-09-14T13:31:12.176Z,18.00
2018-09-14T13:33:47.552Z,18.00
2018-09-14T13:36:17.037Z,22.25
2018-09-14T13:38:49.616Z,23.00
2018-09-14T13:41:19.644Z,23.25
2018-09-14T13:44:06.808Z,24.00
2018-09-14T13:46:44.669Z,20.00
2018-09-14T13:49:14.710Z,23.75
2018-09-14T13:51:54.832Z,22.00
2018-09-14T13:54:25.309Z,22.25
2018-09-14T13:56:55.491Z,18.75
2018-09-14T13:59:28.713Z,20.00
2018-09-14T14:01:59.213Z,19.00
2018-09-14T14:04:29.536Z,19.75
2018-09-14T14:07:03.264Z,14.00
2018-09-14T14:09:32.809Z,15.00
2018-09-14T14:12:02.629Z,14.25
2018-09-14T14:14:40.515Z,14.00
2018-09-14T14:17:11.330Z,13.75
2018-09-14T14:19:45.015Z,12.00
2018-09-14T14:25:05.601Z,10.50
2018-09-14T14:27:36.150Z,10.25
2018-09-14T14:30:09.447Z,10.00
2018-09-14T14:32:39.590Z,8.75
2018-09-14T14:35:10.782Z,9.00
2018-09-14T14:37:44.885Z,9.00
2018-09-14T14:40:17.422Z,10.00
2018-09-14T14:42:47.923Z,9.00
2018-09-14T14:45:17.507Z,10.00
2018-09-14T14:47:51.098Z,9.00
2018-09-14T14:50:24.726Z,11.00
2018-09-14T14:53:25.988Z,11.25
2018-09-14T14:55:57.107Z,11.50
2018-09-14T14:58:27.191Z,11.25
2018-09-14T15:01:01.208Z,9.00
2018-09-14T15:03:32.025Z,12.75
2018-09-14T15:06:05.308Z,10.75
2018-09-14T15:08:36.140Z,11.50
2018-09-14T15:11:07.896Z,11.50
2018-09-14T15:13:46.168Z,10.50
2018-09-14T15:16:17.825Z,11.00
2018-09-14T15:18:48.298Z,12.50
2018-09-14T15:21:21.594Z,10.25
2018-09-14T15:23:56.398Z,9.25
2018-09-14T15:26:28.666Z,8.00
2018-09-14T15:29:02.354Z,10.25
2018-09-14T15:31:34.192Z,11.00
2018-09-14T15:34:06.085Z,10.00
2018-09-14T15:36:39.536Z,13.75
2018-09-14T15:39:15.061Z,10.25
2018-09-14T15:41:44.581Z,9.25
2018-09-14T15:44:14.088Z,12.00
2018-09-14T15:46:44.216Z,12.75
2018-09-14T15:49:17.840Z,11.75
2018-09-14T15:51:48.695Z,14.75
2018-09-14T15:54:44.974Z,11.75
2018-09-14T15:57:14.740Z,14.00
2018-09-14T15:59:47.733Z,11.00
2018-09-14T16:02:57.433Z,12.50
2018-09-14T16:05:29.126Z,14.00
2018-09-14T16:07:59.520Z,11.00
2018-09-14T16:10:36.453Z,12.25
2018-09-14T16:13:05.986Z,13.25
2018-09-14T16:15:35.727Z,13.00
2018-09-14T16:18:06.502Z,13.50
2018-09-14T16:20:35.971Z,13.50
2018-09-14T16:23:06.560Z,14.00
2018-09-14T16:25:37.154Z,12.00
2018-09-14T16:28:06.903Z,14.25
2018-09-14T16:30:37.869Z,13.00
2018-09-14T16:33:07.346Z,14.00
2018-09-14T16:35:40.307Z,16.50
2018-09-14T16:38:10.979Z,12.00
2018-09-14T16:40:45.388Z,15.50
2018-09-14T16:43:18.242Z,16.00
2018-09-14T16:45:51.159Z,12.50
2018-09-14T16:48:23.307Z,16.50
2018-09-14T16:50:54.974Z,13.00
2018-09-14T16:53:24.636Z,13.00
2018-09-14T16:56:01.729Z,12.50
2018-09-14T16:58:32.368Z,12.25
2018-09-14T17:01:06.714Z,12.25
2018-09-14T17:03:38.671Z,15.00
2018-09-14T17:06:14.656Z,14.75
2018-09-14T17:08:45.672Z,12.00
2018-09-14T17:11:18.329Z,13.00
2018-09-14T17:13:51.048Z,13.25
2018-09-14T17:16:42.418Z,12.50
2018-09-14T17:19:19.918Z,13.00
2018-09-14T17:21:51.609Z,10.50
2018-09-14T17:24:25.510Z,11.00
2018-09-14T17:26:59.007Z,12.75
2018-09-14T17:29:35.406Z,16.50
2018-09-14T17:32:08.896Z,17.25
2018-09-14T17:34:44.467Z,13.25
2018-09-14T17:37:23.437Z,14.00
2018-09-14T17:39:54.460Z,12.25
2018-09-14T17:42:28.479Z,12.75
2018-09-14T17:45:10.308Z,14.00
2018-09-14T17:47:43.096Z,12.75
2018-09-14T17:53:20.280Z,15.25
2018-09-14T17:55:50.279Z,12.50
2018-09-14T17:58:21.807Z,11.00
2018-09-14T18:00:59.889Z,12.25
2018-09-14T18:03:29.985Z,13.50
2018-09-14T18:06:13.873Z,11.50
2018-09-14T18:08:46.842Z,13.75
2018-09-14T18:11:21.474Z,14.00
2018-09-14T18:13:55.130Z,17.00
2018-09-14T18:16:48.589Z,14.50
2018-09-14T18:19:21.435Z,15.75
2018-09-14T18:21:51.790Z,14.00
2018-09-14T18:24:32.161Z,15.00
2018-09-14T18:27:04.737Z,12.75
2018-09-14T18:29:36.410Z,15.50
2018-09-14T18:32:11.287Z,13.75
2018-09-14T18:34:43.200Z,15.25
2018-09-14T18:37:15.771Z,14.50
2018-09-14T18:39:47.217Z,12.75
2018-09-14T18:44:55.189Z,18.25
2018-09-14T18:47:26.462Z,15.25
2018-09-14T18:50:00.638Z,13.25
2018-09-14T18:52:33.811Z,17.00
2018-09-14T18:55:07.792Z,20.00
2018-09-14T18:57:46.567Z,21.00
2018-09-14T19:00:22.670Z,17.25
2018-09-14T19:02:54.605Z,17.50
2018-09-14T19:05:30.893Z,20.25
2018-09-14T19:08:02.502Z,20.75
2018-09-14T19:10:39.475Z,23.75
2018-09-14T19:13:11.679Z,18.25
2018-09-14T19:15:43.498Z,19.75
2018-09-14T19:18:41.289Z,23.25
2018-09-14T19:21:11.196Z,23.50
2018-09-14T19:23:44.482Z,23.75
2018-09-14T19:26:18.719Z,21.50
2018-09-14T19:28:49.685Z,19.75
2018-09-14T19:31:21.693Z,16.75
2018-09-14T19:34:00.852Z,17.00
2018-09-14T19:36:37.395Z,18.75
2018-09-14T19:39:18.170Z,15.75
2018-09-14T19:42:01.559Z,19.25
2018-09-14T19:44:32.557Z,19.75
2018-09-14T19:47:03.026Z,21.50
2018-09-14T19:49:34.000Z,18.75
2018-09-14T19:52:04.598Z,24.00
2018-09-14T19:54:37.231Z,19.00
2018-09-14T19:57:09.303Z,23.75
2018-09-14T19:59:49.796Z,19.50
2018-09-14T20:02:25.370Z,19.75
2018-09-14T20:05:03.449Z,21.75
2018-09-14T20:07:35.941Z,19.25
2018-09-14T20:10:06.215Z,22.50
2018-09-14T20:12:38.861Z,22.25
2018-09-14T20:15:15.545Z,21.75
2018-09-14T20:17:50.753Z,18.50
2018-09-14T20:20:22.555Z,21.75
2018-09-14T20:22:54.158Z,22.25
2018-09-14T20:25:24.915Z,21.00
2018-09-14T20:27:56.495Z,23.25
2018-09-14T20:33:20.922Z,19.50
2018-09-14T20:35:53.995Z,20.75
2018-09-14T20:38:24.745Z,20.50
2018-09-14T20:40:58.563Z,21.00
2018-09-14T20:43:30.002Z,21.75
2018-09-14T20:46:03.364Z,18.50
2018-09-14T20:48:41.464Z,20.00
2018-09-14T20:51:12.401Z,19.75
2018-09-14T20:53:44.722Z,24.25
2018-09-14T20:56:15.141Z,23.00
2018-09-14T20:58:44.764Z,20.75
2018-09-14T21:01:14.473Z,22.00
2018-09-14T21:03:45.495Z,25.25
2018-09-14T21:06:19.008Z,22.00
2018-09-14T21:08:52.570Z,21.50
2018-09-14T21:11:28.444Z,26.75
2018-09-14T21:14:01.843Z,21.50
2018-09-14T21:16:32.156Z,20.00
2018-09-14T21:19:04.221Z,22.25
2018-09-14T21:21:34.326Z,24.75
2018-09-14T21:24:05.226Z,20.50
2018-09-14T21:26:36.485Z,17.75
2018-09-14T21:29:09.944Z,18.50
2018-09-14T21:31:47.275Z,17.75
2018-09-14T21:34:24.663Z,15.75
2018-09-14T21:37:01.768Z,15.75
2018-09-14T21:39:34.629Z,15.25
2018-09-14T21:42:05.589Z,16.00
2018-09-14T21:44:37.568Z,15.25
2018-09-14T21:47:12.672Z,16.75
2018-09-14T21:49:44.123Z,16.25
2018-09-14T21:52:13.888Z,15.75
2018-09-14T21:54:54.257Z,16.75
2018-09-14T21:57:23.821Z,15.50
2018-09-14T21:59:53.922Z,13.25
2018-09-14T22:02:27.190Z,16.00
2018-09-14T22:04:57.388Z,15.75
2018-09-14T22:07:26.937Z,14.25
2018-09-14T22:09:56.889Z,14.00
2018-09-14T22:15:09.420Z,17.75
2018-09-14T22:17:41.390Z,17.75
2018-09-14T22:20:13.317Z,18.25
2018-09-14T22:22:44.632Z,15.25
2018-09-14T22:25:16.216Z,15.50
2018-09-14T22:27:47.741Z,17.00
2018-09-14T22:30:20.227Z,16.00
2018-09-14T22:32:50.480Z,14.00
2018-09-14T22:35:22.841Z,19.00
2018-09-14T22:37:52.493Z,14.75
2018-09-14T22:40:22.831Z,15.25
2018-09-14T22:42:56.721Z,16.25
2018-09-14T22:45:26.277Z,12.00
2018-09-14T22:47:57.088Z,15.00
2018-09-14T22:50:27.340Z,16.00
2018-09-14T22:52:56.853Z,13.00
2018-09-14T22:55:27.424Z,10.75
2018-09-14T22:57:58.475Z,13.50
2018-09-14T23:03:20.463Z,12.00
2018-09-14T23:08:32.159Z,11.25
2018-09-14T23:11:11.341Z,9.50
2018-09-14T23:13:44.966Z,11.75
2018-09-14T23:16:15.150Z,11.50
2018-09-14T23:18:46.446Z,12.00
2018-09-14T23:21:17.680Z,16.50
2018-09-14T23:23:47.417Z,17.75
2018-09-14T23:26:19.406Z,20.00
2018-09-14T23:28:49.075Z,28.00
2018-09-14T23:31:19.353Z,20.75
2018-09-14T23:33:50.867Z,16.50
2018-09-14T23:36:20.332Z,17.25
2018-09-14T23:38:50.232Z,15.50
2018-09-14T23:41:20.464Z,15.75
2018-09-14T23:43:51.607Z,15.00
2018-09-14T23:46:21.822Z,14.75
2018-09-14T23:48:52.480Z,13.50
2018-09-14T23:51:21.786Z,13.25
2018-09-14T23:53:53.211Z,16.75
2018-09-14T23:56:22.802Z,12.50
2018-09-14T23:58:55.796Z,12.25
